createdAt,value
2022-09-04T00:00:42.014Z,86.77
2022-09-04T00:01:45.026Z,86.77
2022-09-04T00:02:42.010Z,86.77
2022-09-04T00:03:42.146Z,86.22
2022-09-04T00:04:42.088Z,86.02
2022-09-04T00:05:41.977Z,85.82
2022-09-04T00:06:41.967Z,85.92
2022-09-04T00:07:41.965Z,86.22
2022-09-04T00:08:41.993Z,87.08
2022-09-04T00:09:41.940Z,87.59
2022-09-04T00:10:41.939Z,88.13
2022-09-04T00:11:41.936Z,89.00
2022-09-04T00:12:41.923Z,89.09
2022-09-04T00:13:41.940Z,89.20
2022-09-04T00:14:41.914Z,89.09
2022-09-04T00:15:41.902Z,89.09
2022-09-04T00:16:41.988Z,89.50
2022-09-04T00:17:41.886Z,88.85
2022-09-04T00:18:41.880Z,88.75
2022-09-04T00:19:41.900Z,88.69
2022-09-04T00:20:41.862Z,87.84
2022-09-04T00:21:41.850Z,87.53
2022-09-04T00:22:41.840Z,87.23
2022-09-04T00:23:41.863Z,87.12
2022-09-04T00:24:41.829Z,87.53
2022-09-04T00:25:41.811Z,87.43
2022-09-04T00:26:41.815Z,87.73
2022-09-04T00:27:41.836Z,86.61
2022-09-04T00:28:41.818Z,86.35
2022-09-04T00:29:41.785Z,86.04
2022-09-04T00:30:41.905Z,85.70
2022-09-04T00:31:41.779Z,86.21
2022-09-04T00:32:41.766Z,86.31
2022-09-04T00:33:41.784Z,86.92
2022-09-04T00:34:41.752Z,86.51
2022-09-04T00:35:41.745Z,87.12
2022-09-04T00:36:41.742Z,87.43
2022-09-04T00:37:41.726Z,87.67
2022-09-04T00:38:41.754Z,87.16
2022-09-04T00:39:41.777Z,87.87
2022-09-04T00:40:41.713Z,88.28
2022-09-04T00:41:41.697Z,88.18
2022-09-04T00:42:41.687Z,88.39
2022-09-04T00:43:41.707Z,88.69
2022-09-04T00:44:41.677Z,88.48
2022-09-04T00:45:41.819Z,88.48
2022-09-04T00:46:41.664Z,88.73
2022-09-04T00:47:41.653Z,89.44
2022-09-04T00:48:41.673Z,88.93
2022-09-04T00:49:41.637Z,89.34
2022-09-04T00:50:41.635Z,89.44
2022-09-04T00:51:41.623Z,88.93
2022-09-04T00:52:41.624Z,89.20
2022-09-04T00:53:41.658Z,89.14
2022-09-04T00:54:41.606Z,88.89
2022-09-04T00:55:41.593Z,88.83
2022-09-04T00:56:41.589Z,88.69
2022-09-04T00:57:41.585Z,88.93
2022-09-04T00:58:41.603Z,88.83
2022-09-04T00:59:41.565Z,88.53
2022-09-04T01:00:41.635Z,88.18
2022-09-04T01:01:41.717Z,88.48
2022-09-04T01:02:41.542Z,88.63
2022-09-04T01:03:41.569Z,88.48
2022-09-04T01:04:41.530Z,88.02
2022-09-04T01:05:41.518Z,87.87
2022-09-04T01:06:41.523Z,88.18
2022-09-04T01:07:41.517Z,86.86
2022-09-04T01:08:41.501Z,87.77
2022-09-04T01:09:41.518Z,88.02
2022-09-04T01:10:41.505Z,88.32
2022-09-04T01:11:41.478Z,88.22
2022-09-04T01:12:41.469Z,88.26
2022-09-04T01:13:41.498Z,88.98
2022-09-04T01:14:41.480Z,89.07
2022-09-04T01:15:41.452Z,89.32
2022-09-04T01:16:41.486Z,89.22
2022-09-04T01:17:41.432Z,89.22
2022-09-04T01:18:41.424Z,89.22
2022-09-04T01:19:41.445Z,89.42
2022-09-04T01:20:41.413Z,90.03
2022-09-04T01:21:41.414Z,90.18
2022-09-04T01:22:41.397Z,90.89
2022-09-04T01:23:41.417Z,90.48
2022-09-04T01:24:41.382Z,90.69
2022-09-04T01:25:41.377Z,90.48
2022-09-04T01:26:41.381Z,90.08
2022-09-04T01:27:41.356Z,90.79
2022-09-04T01:28:41.377Z,90.18
2022-09-04T01:29:41.345Z,91.30
2022-09-04T01:30:41.338Z,91.65
2022-09-04T01:31:41.371Z,92.01
2022-09-04T01:32:41.325Z,91.50
2022-09-04T01:33:41.342Z,91.50
2022-09-04T01:34:41.308Z,90.22
2022-09-04T01:35:41.295Z,89.51
2022-09-04T01:36:41.293Z,89.61
2022-09-04T01:37:41.273Z,89.77
2022-09-04T01:38:42.296Z,89.61
2022-09-04T01:39:41.308Z,89.30
2022-09-04T01:40:41.259Z,89.47
2022-09-04T01:41:41.254Z,89.67
2022-09-04T01:42:41.256Z,89.16
2022-09-04T01:43:41.265Z,88.96
2022-09-04T01:44:41.232Z,88.75
2022-09-04T01:45:41.290Z,88.65
2022-09-04T01:46:41.225Z,88.90
2022-09-04T01:47:41.215Z,89.00
2022-09-04T01:48:41.229Z,88.85
2022-09-04T01:49:41.195Z,88.59
2022-09-04T01:50:41.188Z,88.75
2022-09-04T01:51:41.177Z,89.16
2022-09-04T01:52:41.169Z,89.36
2022-09-04T01:53:41.190Z,89.57
2022-09-04T01:54:41.164Z,88.96
2022-09-04T01:55:41.144Z,89.06
2022-09-04T01:56:41.139Z,88.59
2022-09-04T01:57:41.133Z,89.00
2022-09-04T01:58:41.149Z,88.90
2022-09-04T01:59:41.110Z,89.00
2022-09-04T02:00:42.161Z,89.30
2022-09-04T02:01:41.219Z,89.51
2022-09-04T02:02:41.095Z,89.71
2022-09-04T02:03:41.123Z,89.30
2022-09-04T02:04:41.085Z,88.90
2022-09-04T02:05:41.071Z,89.20
2022-09-04T02:06:41.063Z,89.61
2022-09-04T02:07:41.065Z,88.85
2022-09-04T02:08:41.072Z,88.90
2022-09-04T02:09:41.045Z,89.00
2022-09-04T02:10:41.028Z,88.49
2022-09-04T02:11:41.021Z,88.49
2022-09-04T02:12:41.014Z,88.49
2022-09-04T02:13:41.035Z,88.69
2022-09-04T02:14:40.999Z,88.84
2022-09-04T02:15:40.992Z,89.04
2022-09-04T02:16:41.007Z,89.45
2022-09-04T02:17:40.975Z,89.14
2022-09-04T02:18:41.005Z,88.93
2022-09-04T02:19:40.963Z,89.14
2022-09-04T02:20:40.952Z,89.14
2022-09-04T02:21:40.945Z,89.14
2022-09-04T02:22:40.939Z,89.04
2022-09-04T02:23:40.962Z,89.28
2022-09-04T02:24:40.924Z,89.14
2022-09-04T02:25:40.920Z,89.08
2022-09-04T02:26:40.914Z,88.98
2022-09-04T02:27:40.903Z,89.14
2022-09-04T02:28:40.911Z,89.18
2022-09-04T02:29:41.888Z,89.49
2022-09-04T02:30:40.876Z,89.49
2022-09-04T02:31:40.949Z,89.69
2022-09-04T02:32:40.862Z,89.39
2022-09-04T02:33:40.877Z,89.49
2022-09-04T02:34:40.843Z,89.55
2022-09-04T02:35:40.837Z,89.39
2022-09-04T02:36:40.831Z,89.04
2022-09-04T02:37:40.823Z,89.14
2022-09-04T02:38:40.842Z,89.25
2022-09-04T02:39:40.865Z,89.04
2022-09-04T02:40:40.797Z,88.63
2022-09-04T02:41:40.791Z,88.93
2022-09-04T02:42:40.792Z,88.78
2022-09-04T02:43:40.802Z,89.08
2022-09-04T02:44:40.767Z,88.98
2022-09-04T02:45:40.759Z,89.59
2022-09-04T02:46:43.293Z,89.69
2022-09-04T02:47:41.738Z,89.79
2022-09-04T02:48:40.730Z,89.49
2022-09-04T02:49:40.753Z,89.69
2022-09-04T02:50:40.716Z,89.69
2022-09-04T02:51:40.708Z,89.63
2022-09-04T02:52:40.698Z,89.59
2022-09-04T02:53:40.696Z,89.69
2022-09-04T02:54:40.710Z,89.69
2022-09-04T02:55:40.671Z,90.25
2022-09-04T02:56:40.675Z,90.61
2022-09-04T02:57:40.667Z,90.00
2022-09-04T02:58:40.663Z,90.31
2022-09-04T02:59:40.670Z,89.69
2022-09-04T03:00:40.683Z,90.14
2022-09-04T03:01:40.679Z,90.81
2022-09-04T03:02:40.618Z,90.86
2022-09-04T03:03:40.617Z,90.45
2022-09-04T03:04:40.630Z,90.55
2022-09-04T03:05:40.600Z,90.55
2022-09-04T03:06:40.595Z,90.92
2022-09-04T03:07:40.582Z,91.02
2022-09-04T03:08:40.581Z,91.83
2022-09-04T03:09:40.602Z,91.74
2022-09-04T03:10:40.562Z,91.88
2022-09-04T03:11:40.555Z,92.55
2022-09-04T03:12:40.553Z,92.35
2022-09-04T03:13:40.539Z,92.14
2022-09-04T03:14:40.564Z,91.47
2022-09-04T03:15:40.532Z,91.67
2022-09-04T03:16:40.557Z,91.78
2022-09-04T03:17:40.508Z,91.57
2022-09-04T03:18:40.502Z,91.52
2022-09-04T03:19:40.526Z,92.08
2022-09-04T03:20:40.489Z,92.13
2022-09-04T03:21:40.483Z,92.13
2022-09-04T03:22:40.478Z,91.06
2022-09-04T03:23:40.470Z,91.37
2022-09-04T03:24:40.497Z,90.86
2022-09-04T03:25:40.459Z,91.06
2022-09-04T03:26:40.444Z,90.55
2022-09-04T03:27:40.438Z,90.66
2022-09-04T03:28:40.425Z,90.70
2022-09-04T03:29:40.451Z,90.35
2022-09-04T03:30:40.429Z,90.96
2022-09-04T03:31:40.440Z,92.13
2022-09-04T03:32:40.401Z,92.39
2022-09-04T03:33:40.393Z,93.55
2022-09-04T03:34:40.410Z,93.51
2022-09-04T03:35:40.379Z,93.96
2022-09-04T03:36:40.370Z,93.82
2022-09-04T03:37:40.355Z,93.82
2022-09-04T03:38:40.353Z,93.96
2022-09-04T03:39:40.413Z,94.02
2022-09-04T03:40:40.335Z,93.76
2022-09-04T03:41:40.329Z,93.86
2022-09-04T03:42:40.322Z,93.86
2022-09-04T03:43:40.316Z,93.71
2022-09-04T03:44:40.331Z,93.45
2022-09-04T03:45:40.301Z,92.74
2022-09-04T03:46:40.312Z,93.15
2022-09-04T03:47:40.285Z,93.35
2022-09-04T03:48:40.277Z,93.45
2022-09-04T03:49:40.281Z,93.15
2022-09-04T03:50:40.290Z,92.13
2022-09-04T03:51:40.245Z,92.54
2022-09-04T03:52:40.242Z,91.92
2022-09-04T03:53:40.240Z,92.02
2022-09-04T03:54:40.235Z,93.45
2022-09-04T03:55:40.246Z,93.76
2022-09-04T03:56:40.220Z,93.80
2022-09-04T03:57:40.206Z,93.76
2022-09-04T03:58:40.195Z,93.66
2022-09-04T03:59:40.192Z,93.76
2022-09-04T04:00:40.230Z,93.55
2022-09-04T04:01:40.181Z,93.80
2022-09-04T04:02:40.195Z,94.07
2022-09-04T04:03:40.150Z,94.17
2022-09-04T04:04:41.165Z,93.70
2022-09-04T04:05:40.177Z,93.76
2022-09-04T04:06:40.142Z,93.86
2022-09-04T04:07:40.137Z,93.45
2022-09-04T04:08:40.131Z,94.17
2022-09-04T04:09:40.122Z,94.17
2022-09-04T04:10:40.145Z,94.01
2022-09-04T04:11:43.362Z,93.76
2022-09-04T04:12:41.095Z,93.96
2022-09-04T04:13:40.088Z,93.66
2022-09-04T04:14:40.085Z,93.66
2022-09-04T04:15:40.105Z,93.86
2022-09-04T04:16:40.143Z,93.35
2022-09-04T04:17:40.061Z,93.25
2022-09-04T04:18:40.096Z,93.50
2022-09-04T04:19:40.046Z,93.40
2022-09-04T04:20:40.061Z,93.60
2022-09-04T04:21:40.036Z,94.01
2022-09-04T04:22:40.033Z,94.32
2022-09-04T04:23:40.021Z,93.91
2022-09-04T04:24:40.013Z,94.11
2022-09-04T04:25:40.030Z,93.91
2022-09-04T04:26:39.993Z,94.11
2022-09-04T04:27:39.989Z,93.91
2022-09-04T04:28:39.979Z,93.60
2022-09-04T04:29:39.969Z,93.95
2022-09-04T04:30:40.004Z,93.50
2022-09-04T04:31:39.996Z,94.52
2022-09-04T04:32:39.955Z,94.11
2022-09-04T04:33:39.947Z,94.01
2022-09-04T04:34:39.934Z,94.46
2022-09-04T04:35:39.928Z,94.32
2022-09-04T04:36:39.953Z,94.46
2022-09-04T04:37:39.959Z,94.36
2022-09-04T04:38:39.953Z,94.32
2022-09-04T04:39:39.918Z,94.67
2022-09-04T04:40:39.892Z,94.46
2022-09-04T04:41:39.910Z,94.36
2022-09-04T04:42:39.868Z,95.32
2022-09-04T04:43:39.865Z,95.43
2022-09-04T04:44:39.857Z,95.84
2022-09-04T04:45:39.877Z,95.53
2022-09-04T04:46:39.864Z,95.43
2022-09-04T04:47:39.828Z,95.32
2022-09-04T04:48:39.834Z,95.12
2022-09-04T04:49:39.816Z,95.53
2022-09-04T04:50:39.838Z,95.32
2022-09-04T04:51:39.806Z,95.63
2022-09-04T04:52:39.796Z,95.38
2022-09-04T04:53:39.788Z,95.38
2022-09-04T04:54:39.783Z,95.07
2022-09-04T04:55:39.797Z,94.67
2022-09-04T04:56:39.765Z,94.87
2022-09-04T04:57:39.755Z,94.62
2022-09-04T04:58:39.754Z,94.67
2022-09-04T04:59:39.746Z,95.38
2022-09-04T05:00:39.757Z,95.59
2022-09-04T05:01:40.029Z,95.38
2022-09-04T05:02:39.962Z,95.48
2022-09-04T05:03:39.716Z,95.44
2022-09-04T05:04:39.701Z,95.48
2022-09-04T05:05:39.724Z,95.03
2022-09-04T05:06:39.695Z,95.03
2022-09-04T05:07:39.678Z,94.52
2022-09-04T05:08:39.674Z,94.42
2022-09-04T05:09:39.662Z,94.67
2022-09-04T05:10:39.698Z,94.67
2022-09-04T05:11:39.647Z,94.52
2022-09-04T05:12:39.640Z,94.62
2022-09-04T05:13:39.633Z,94.42
2022-09-04T05:14:39.627Z,94.32
2022-09-04T05:15:53.183Z,94.42
2022-09-04T05:16:41.658Z,94.11
2022-09-04T05:17:40.600Z,94.01
2022-09-04T05:18:39.595Z,93.50
2022-09-04T05:19:39.589Z,93.91
2022-09-04T05:20:39.580Z,94.11
2022-09-04T05:21:39.597Z,93.86
2022-09-04T05:22:39.566Z,93.71
2022-09-04T05:23:39.561Z,92.91
2022-09-04T05:24:39.547Z,90.75
2022-09-04T05:25:39.539Z,87.30
2022-09-04T05:26:39.555Z,86.31
2022-09-04T05:27:39.530Z,84.40
2022-09-04T05:28:39.517Z,82.12
2022-09-04T05:29:39.512Z,82.09
2022-09-04T05:30:39.502Z,80.57
2022-09-04T05:31:39.578Z,80.22
2022-09-04T05:32:39.482Z,77.92
2022-09-04T05:33:39.478Z,76.60
2022-09-04T05:34:39.477Z,77.11
2022-09-04T05:35:39.463Z,77.55
2022-09-04T05:36:39.476Z,77.95
2022-09-04T05:37:39.463Z,77.61
2022-09-04T05:38:39.437Z,77.21
2022-09-04T05:39:39.470Z,77.17
2022-09-04T05:40:39.427Z,77.92
2022-09-04T05:41:39.443Z,78.53
2022-09-04T05:42:39.412Z,79.17
2022-09-04T05:43:39.403Z,79.27
2022-09-04T05:44:39.394Z,79.96
2022-09-04T05:45:39.393Z,79.85
2022-09-04T05:46:39.434Z,80.71
2022-09-04T05:47:39.406Z,81.66
2022-09-04T05:48:39.361Z,82.57
2022-09-04T05:49:39.354Z,83.08
2022-09-04T05:50:39.357Z,82.78
2022-09-04T05:51:39.369Z,82.87
2022-09-04T05:52:39.332Z,82.98
2022-09-04T05:53:39.324Z,82.67
2022-09-04T05:54:39.322Z,82.92
2022-09-04T05:55:39.310Z,82.67
2022-09-04T05:56:39.333Z,83.28
2022-09-04T05:57:39.294Z,82.92
2022-09-04T05:58:39.284Z,82.20
2022-09-04T05:59:39.278Z,83.42
2022-09-04T06:00:39.263Z,82.92
2022-09-04T06:01:39.366Z,83.12
2022-09-04T06:02:39.359Z,81.90
2022-09-04T06:03:39.247Z,83.12
2022-09-04T06:04:39.237Z,83.73
2022-09-04T06:05:39.223Z,82.61
2022-09-04T06:06:39.251Z,82.57
2022-09-04T06:07:39.214Z,83.28
2022-09-04T06:08:39.197Z,82.81
2022-09-04T06:09:39.191Z,82.98
2022-09-04T06:10:39.189Z,83.62
2022-09-04T06:11:39.204Z,83.87
2022-09-04T06:12:39.166Z,84.68
2022-09-04T06:13:39.160Z,84.88
2022-09-04T06:14:39.154Z,84.78
2022-09-04T06:15:39.221Z,84.54
2022-09-04T06:16:39.161Z,84.44
2022-09-04T06:17:39.129Z,84.64
2022-09-04T06:18:39.118Z,84.30
2022-09-04T06:19:39.118Z,83.85
2022-09-04T06:20:39.137Z,83.65
2022-09-04T06:21:39.115Z,83.34
2022-09-04T06:22:39.089Z,83.20
2022-09-04T06:23:39.091Z,82.80
2022-09-04T06:24:39.076Z,83.10
2022-09-04T06:25:39.073Z,82.70
2022-09-04T06:26:39.083Z,81.99
2022-09-04T06:27:39.054Z,82.19
2022-09-04T06:28:39.040Z,82.29
2022-09-04T06:29:39.033Z,81.85
2022-09-04T06:30:39.045Z,80.83
2022-09-04T06:31:39.129Z,80.73
2022-09-04T06:32:39.011Z,81.13
2022-09-04T06:33:39.001Z,80.79
2022-09-04T06:34:38.992Z,81.10
2022-09-04T06:35:38.990Z,80.69
2022-09-04T06:36:39.005Z,80.99
2022-09-04T06:37:38.968Z,81.26
2022-09-04T06:38:38.962Z,81.26
2022-09-04T06:39:39.026Z,80.31
2022-09-04T06:40:38.954Z,80.11
2022-09-04T06:41:38.970Z,80.05
2022-09-04T06:42:38.944Z,80.52
2022-09-04T06:43:38.933Z,79.20
2022-09-04T06:44:38.923Z,79.40
2022-09-04T06:45:38.912Z,79.67
2022-09-04T06:46:39.062Z,78.86
2022-09-04T06:47:38.910Z,79.40
2022-09-04T06:48:38.886Z,79.16
2022-09-04T06:49:38.882Z,78.96
2022-09-04T06:50:38.879Z,78.62
2022-09-04T06:51:38.895Z,78.35
2022-09-04T06:52:38.873Z,78.31
2022-09-04T06:53:38.853Z,78.11
2022-09-04T06:54:38.842Z,77.91
2022-09-04T06:55:39.021Z,77.00
2022-09-04T06:56:38.850Z,77.95
2022-09-04T06:57:38.819Z,77.71
2022-09-04T06:58:38.839Z,77.67
2022-09-04T06:59:38.796Z,77.17
2022-09-04T07:00:38.789Z,77.64
2022-09-04T07:01:38.867Z,77.33
2022-09-04T07:02:38.996Z,76.62
2022-09-04T07:03:38.765Z,76.62
2022-09-04T07:04:38.771Z,76.02
2022-09-04T07:05:38.754Z,75.78
2022-09-04T07:06:38.787Z,76.22
2022-09-04T07:07:38.756Z,76.22
2022-09-04T07:08:38.733Z,75.92
2022-09-04T07:09:38.728Z,75.48
2022-09-04T07:10:38.716Z,76.04
2022-09-04T07:11:38.732Z,75.64
2022-09-04T07:12:38.703Z,75.54
2022-09-04T07:13:38.691Z,75.54
2022-09-04T07:14:38.682Z,75.84
2022-09-04T07:15:38.745Z,76.21
2022-09-04T07:16:38.695Z,75.95
2022-09-04T07:17:38.653Z,75.51
2022-09-04T07:18:38.659Z,75.10
2022-09-04T07:19:38.637Z,75.57
2022-09-04T07:20:38.645Z,75.77
2022-09-04T07:21:38.661Z,74.12
2022-09-04T07:22:38.628Z,74.08
2022-09-04T07:23:38.614Z,73.58
2022-09-04T07:24:38.611Z,73.18
2022-09-04T07:25:38.599Z,72.88
2022-09-04T07:26:38.618Z,72.98
2022-09-04T07:27:38.590Z,73.05
2022-09-04T07:28:38.569Z,72.74
2022-09-04T07:29:38.566Z,73.14
2022-09-04T07:30:38.585Z,72.94
2022-09-04T07:31:38.690Z,72.61
2022-09-04T07:32:38.542Z,72.11
2022-09-04T07:33:38.542Z,72.74
2022-09-04T07:34:38.544Z,73.08
2022-09-04T07:35:38.516Z,74.43
2022-09-04T07:36:38.550Z,75.74
2022-09-04T07:37:38.502Z,75.30
2022-09-04T07:38:38.500Z,74.79
2022-09-04T07:39:38.569Z,74.05
2022-09-04T07:40:38.565Z,73.21
2022-09-04T07:41:38.498Z,72.51
2022-09-04T07:42:38.466Z,73.11
2022-09-04T07:43:38.460Z,73.24
2022-09-04T07:44:38.459Z,72.44
2022-09-04T07:45:38.444Z,72.30
2022-09-04T07:46:38.553Z,71.83
2022-09-04T07:47:38.433Z,72.94
2022-09-04T07:48:38.437Z,71.63
2022-09-04T07:49:38.432Z,72.00
2022-09-04T07:50:38.408Z,71.87
2022-09-04T07:51:38.406Z,71.87
2022-09-04T07:52:38.408Z,71.67
2022-09-04T07:53:38.376Z,71.06
2022-09-04T07:54:38.368Z,70.93
2022-09-04T07:55:38.362Z,70.66
2022-09-04T07:56:38.356Z,71.36
2022-09-04T07:57:38.374Z,72.77
2022-09-04T07:58:38.336Z,72.17
2022-09-04T07:59:38.328Z,72.57
2022-09-04T08:00:38.324Z,71.67
2022-09-04T08:01:40.407Z,71.06
2022-09-04T08:02:39.332Z,69.92
2022-09-04T08:03:38.298Z,70.03
2022-09-04T08:04:39.362Z,69.19
2022-09-04T08:05:38.298Z,69.46
2022-09-04T08:06:38.277Z,69.02
2022-09-04T08:07:38.302Z,68.42
2022-09-04T08:08:38.269Z,68.22
2022-09-04T08:09:38.255Z,68.69
2022-09-04T08:10:38.253Z,66.45
2022-09-04T08:11:38.248Z,66.95
2022-09-04T08:12:38.257Z,66.22
2022-09-04T08:13:38.226Z,66.65
2022-09-04T08:14:38.213Z,67.45
2022-09-04T08:15:42.164Z,67.05
2022-09-04T08:16:39.197Z,66.85
2022-09-04T08:17:38.210Z,67.25
2022-09-04T08:18:39.190Z,66.32
2022-09-04T08:19:38.178Z,66.19
2022-09-04T08:20:38.165Z,65.86
2022-09-04T08:21:38.162Z,65.16
2022-09-04T08:22:38.181Z,64.92
2022-09-04T08:23:38.213Z,64.69
2022-09-04T08:24:38.143Z,63.49
2022-09-04T08:25:38.135Z,64.09
2022-09-04T08:26:38.121Z,63.76
2022-09-04T08:27:44.301Z,63.36
2022-09-04T08:28:42.952Z,63.26
2022-09-04T08:29:39.099Z,63.46
2022-09-04T08:30:38.134Z,62.83
2022-09-04T08:31:38.081Z,62.93
2022-09-04T08:32:38.633Z,63.23
2022-09-04T08:33:38.066Z,63.23
2022-09-04T08:34:38.076Z,62.70
2022-09-04T08:35:38.057Z,62.90
2022-09-04T08:36:38.043Z,62.07
2022-09-04T08:37:38.070Z,61.90
2022-09-04T08:38:38.033Z,62.57
2022-09-04T08:39:38.068Z,62.77
2022-09-04T08:40:38.026Z,61.68
2022-09-04T08:41:38.004Z,61.68
2022-09-04T08:42:38.022Z,61.98
2022-09-04T08:43:37.993Z,62.60
2022-09-04T08:44:37.985Z,62.90
2022-09-04T08:45:42.406Z,63.87
2022-09-04T08:46:38.082Z,62.97
2022-09-04T08:47:37.984Z,63.27
2022-09-04T08:48:37.948Z,62.34
2022-09-04T08:49:37.943Z,62.87
2022-09-04T08:50:37.932Z,63.17
2022-09-04T08:51:37.930Z,63.94
2022-09-04T08:52:37.937Z,63.31
2022-09-04T08:53:37.918Z,63.18
2022-09-04T08:54:37.897Z,63.18
2022-09-04T08:55:37.890Z,63.25
2022-09-04T08:56:37.892Z,62.95
2022-09-04T08:57:37.916Z,62.78
2022-09-04T08:58:37.868Z,63.18
2022-09-04T08:59:37.872Z,62.75
2022-09-04T09:00:37.859Z,62.85
2022-09-04T09:01:38.012Z,62.35
2022-09-04T09:02:38.093Z,62.26
2022-09-04T09:03:37.846Z,62.65
2022-09-04T09:04:37.827Z,62.32
2022-09-04T09:05:37.842Z,61.72
2022-09-04T09:06:37.811Z,61.93
2022-09-04T09:07:37.827Z,62.02
2022-09-04T09:08:37.799Z,62.65
2022-09-04T09:09:37.782Z,62.15
2022-09-04T09:10:37.788Z,62.48
2022-09-04T09:11:37.779Z,62.55
2022-09-04T09:12:40.865Z,62.75
2022-09-04T09:13:37.752Z,62.65
2022-09-04T09:14:37.746Z,62.62
2022-09-04T09:15:37.741Z,63.02
2022-09-04T09:16:37.823Z,62.69
2022-09-04T09:17:37.753Z,62.29
2022-09-04T09:18:40.502Z,61.69
2022-09-04T09:19:37.721Z,62.59
2022-09-04T09:20:37.710Z,62.79
2022-09-04T09:21:37.693Z,61.77
2022-09-04T09:22:37.690Z,62.37
2022-09-04T09:23:37.738Z,62.13
2022-09-04T09:24:37.678Z,60.74
2022-09-04T09:25:42.224Z,61.67
2022-09-04T09:26:39.661Z,60.77
2022-09-04T09:27:37.663Z,60.74
2022-09-04T09:28:37.681Z,60.64
2022-09-04T09:29:37.640Z,60.02
2022-09-04T09:30:37.664Z,59.03
2022-09-04T09:31:37.627Z,59.82
2022-09-04T09:32:37.634Z,59.92
2022-09-04T09:33:37.647Z,60.12
2022-09-04T09:34:37.602Z,60.52
2022-09-04T09:35:37.600Z,59.72
2022-09-04T09:36:37.589Z,59.82
2022-09-04T09:37:37.606Z,60.61
2022-09-04T09:38:37.574Z,59.39
2022-09-04T09:39:37.590Z,60.28
2022-09-04T09:40:37.557Z,61.31
2022-09-04T09:41:37.550Z,59.69
2022-09-04T09:42:37.577Z,59.07
2022-09-04T09:43:37.544Z,59.17
2022-09-04T09:44:37.526Z,59.07
2022-09-04T09:45:37.581Z,58.67
2022-09-04T09:46:37.524Z,59.39
2022-09-04T09:47:37.547Z,59.39
2022-09-04T09:48:37.514Z,59.07
2022-09-04T09:49:37.504Z,58.34
2022-09-04T09:50:37.495Z,58.34
2022-09-04T09:51:37.480Z,57.95
2022-09-04T09:52:37.512Z,57.95
2022-09-04T09:53:37.463Z,57.95
2022-09-04T09:54:37.460Z,58.74
2022-09-04T09:55:37.487Z,57.85
2022-09-04T09:56:37.437Z,58.15
2022-09-04T09:57:37.464Z,57.92
2022-09-04T09:58:37.433Z,57.65
2022-09-04T09:59:37.425Z,57.85
2022-09-04T10:00:37.432Z,57.78
2022-09-04T10:01:37.438Z,58.27
2022-09-04T10:02:37.489Z,57.95
2022-09-04T10:03:37.387Z,57.35
2022-09-04T10:04:37.397Z,57.45
2022-09-04T10:05:37.384Z,57.15
2022-09-04T10:06:37.373Z,58.04
2022-09-04T10:07:37.384Z,57.13
2022-09-04T10:08:37.352Z,57.15
2022-09-04T10:09:37.347Z,57.55
2022-09-04T10:10:37.337Z,57.15
2022-09-04T10:11:37.327Z,57.75
2022-09-04T10:12:37.364Z,58.15
2022-09-04T10:13:37.321Z,58.51
2022-09-04T10:14:37.313Z,57.23
2022-09-04T10:15:37.305Z,57.29
2022-09-04T10:16:37.346Z,58.22
2022-09-04T10:17:37.320Z,57.13
2022-09-04T10:18:37.275Z,56.21
2022-09-04T10:19:39.217Z,56.51
2022-09-04T10:20:38.272Z,56.11
2022-09-04T10:21:37.264Z,56.21
2022-09-04T10:22:37.277Z,54.92
2022-09-04T10:23:37.237Z,56.51
2022-09-04T10:24:37.235Z,56.85
2022-09-04T10:25:37.227Z,56.66
2022-09-04T10:26:37.227Z,56.26
2022-09-04T10:27:40.635Z,55.91
2022-09-04T10:28:39.205Z,55.09
2022-09-04T10:29:37.205Z,54.60
2022-09-04T10:30:37.244Z,55.29
2022-09-04T10:31:37.196Z,55.16
2022-09-04T10:32:37.209Z,54.37
2022-09-04T10:33:37.171Z,54.07
2022-09-04T10:34:37.176Z,54.52
2022-09-04T10:35:37.172Z,55.91
2022-09-04T10:36:37.164Z,54.92
2022-09-04T10:37:37.176Z,54.30
2022-09-04T10:38:37.146Z,54.37
2022-09-04T10:39:37.182Z,55.36
2022-09-04T10:40:41.024Z,54.10
2022-09-04T10:41:39.114Z,55.15
2022-09-04T10:42:37.142Z,57.48
2022-09-04T10:43:37.105Z,58.57
2022-09-04T10:44:37.096Z,57.32
2022-09-04T10:45:37.153Z,56.11
2022-09-04T10:46:37.082Z,56.11
2022-09-04T10:47:37.100Z,55.19
2022-09-04T10:48:37.080Z,54.86
2022-09-04T10:49:37.070Z,55.96
2022-09-04T10:50:37.037Z,54.77
2022-09-04T10:51:38.048Z,53.45
2022-09-04T10:52:37.065Z,53.85
2022-09-04T10:53:37.035Z,54.54
2022-09-04T10:54:37.022Z,53.97
2022-09-04T10:55:37.020Z,53.06
2022-09-04T10:56:37.010Z,53.53
2022-09-04T10:57:37.032Z,52.54
2022-09-04T10:58:37.001Z,52.54
2022-09-04T10:59:36.989Z,52.64
2022-09-04T11:00:36.973Z,52.34
2022-09-04T11:01:37.050Z,52.34
2022-09-04T11:02:37.022Z,52.73
2022-09-04T11:03:36.955Z,52.73
2022-09-04T11:04:36.950Z,52.93
2022-09-04T11:05:36.951Z,52.44
2022-09-04T11:06:36.940Z,52.81
2022-09-04T11:07:36.957Z,52.83
2022-09-04T11:08:36.929Z,52.73
2022-09-04T11:09:36.911Z,52.46
2022-09-04T11:10:36.904Z,54.39
2022-09-04T11:11:36.903Z,54.07
2022-09-04T11:12:36.927Z,53.75
2022-09-04T11:13:36.886Z,52.22
2022-09-04T11:14:36.875Z,52.83
2022-09-04T11:15:36.865Z,52.64
2022-09-04T11:16:36.884Z,53.58
2022-09-04T11:17:36.871Z,54.17
2022-09-04T11:18:36.845Z,53.38
2022-09-04T11:19:36.836Z,53.16
2022-09-04T11:20:36.822Z,52.46
2022-09-04T11:21:36.820Z,52.66
2022-09-04T11:22:36.838Z,52.17
2022-09-04T11:23:36.816Z,51.84
2022-09-04T11:24:36.794Z,51.57
2022-09-04T11:25:36.795Z,51.25
2022-09-04T11:26:36.779Z,51.05
2022-09-04T11:27:36.793Z,50.58
2022-09-04T11:28:36.767Z,51.15
2022-09-04T11:29:36.768Z,51.15
2022-09-04T11:30:37.661Z,50.43
2022-09-04T11:31:36.801Z,51.25
2022-09-04T11:32:36.758Z,51.62
2022-09-04T11:33:36.729Z,52.71
2022-09-04T11:34:36.735Z,52.19
2022-09-04T11:35:36.712Z,52.19
2022-09-04T11:36:36.712Z,51.60
2022-09-04T11:37:36.734Z,52.66
2022-09-04T11:38:36.692Z,52.44
2022-09-04T11:39:36.726Z,50.95
2022-09-04T11:40:36.687Z,51.30
2022-09-04T11:41:36.681Z,49.52
2022-09-04T11:42:36.684Z,50.12
2022-09-04T11:43:36.662Z,49.64
2022-09-04T11:44:36.655Z,49.74
2022-09-04T11:45:36.665Z,50.13
2022-09-04T11:46:36.642Z,50.24
2022-09-04T11:47:36.655Z,50.04
2022-09-04T11:48:36.623Z,50.24
2022-09-04T11:49:36.629Z,50.31
2022-09-04T11:50:36.602Z,49.54
2022-09-04T11:51:36.602Z,51.47
2022-09-04T11:52:36.613Z,51.97
2022-09-04T11:53:36.593Z,51.97
2022-09-04T11:54:36.568Z,51.25
2022-09-04T11:55:36.568Z,51.45
2022-09-04T11:56:36.563Z,51.37
2022-09-04T11:57:36.585Z,51.07
2022-09-04T11:58:36.561Z,51.99
2022-09-04T11:59:36.542Z,53.28
2022-09-04T12:00:36.542Z,54.57
2022-09-04T12:01:36.532Z,54.17
2022-09-04T12:02:36.585Z,54.35
2022-09-04T12:03:36.556Z,53.11
2022-09-04T12:04:36.513Z,51.67
2022-09-04T12:05:36.503Z,51.15
2022-09-04T12:06:36.491Z,51.32
2022-09-04T12:07:43.003Z,50.63
2022-09-04T12:08:38.511Z,50.13
2022-09-04T12:09:36.471Z,49.13
2022-09-04T12:10:36.472Z,49.25
2022-09-04T12:11:36.456Z,49.25
2022-09-04T12:12:36.457Z,50.53
2022-09-04T12:13:36.467Z,50.06
2022-09-04T12:14:36.435Z,51.42
2022-09-04T12:15:36.447Z,52.49
2022-09-04T12:16:36.509Z,51.07
2022-09-04T12:17:36.416Z,50.66
2022-09-04T12:18:36.502Z,50.34
2022-09-04T12:19:36.399Z,49.96
2022-09-04T12:20:36.390Z,52.54
2022-09-04T12:21:36.389Z,52.54
2022-09-04T12:22:36.438Z,52.64
2022-09-04T12:23:36.397Z,52.64
2022-09-04T12:24:36.368Z,51.89
2022-09-04T12:25:36.352Z,51.77
2022-09-04T12:26:36.352Z,51.94
2022-09-04T12:27:36.344Z,51.23
2022-09-04T12:28:36.365Z,50.12
2022-09-04T12:29:36.326Z,49.62
2022-09-04T12:30:36.318Z,49.74
2022-09-04T12:31:36.377Z,49.54
2022-09-04T12:32:36.310Z,48.95
2022-09-04T12:33:36.342Z,49.84
2022-09-04T12:34:36.288Z,51.40
2022-09-04T12:35:36.288Z,51.79
2022-09-04T12:36:36.278Z,51.37
2022-09-04T12:37:36.261Z,50.78
2022-09-04T12:38:36.287Z,51.50
2022-09-04T12:39:36.305Z,51.60
2022-09-04T12:40:36.249Z,51.75
2022-09-04T12:41:36.234Z,51.25
2022-09-04T12:42:36.231Z,51.18
2022-09-04T12:43:38.636Z,51.05
2022-09-04T12:44:36.222Z,49.96
2022-09-04T12:45:36.284Z,49.57
2022-09-04T12:46:36.223Z,49.54
2022-09-04T12:47:36.212Z,49.54
2022-09-04T12:48:36.212Z,49.35
2022-09-04T12:49:37.296Z,49.62
2022-09-04T12:50:36.168Z,49.79
2022-09-04T12:51:36.169Z,49.67
2022-09-04T12:52:36.152Z,49.10